createdAt,value
2022-09-06T00:04:42.144Z,6.8
2022-09-06T00:19:51.394Z,7.6
2022-09-06T00:35:00.634Z,7.4
2022-09-06T00:50:09.949Z,7.4
2022-09-06T01:05:19.532Z,7.6
2022-09-06T01:20:28.843Z,7.7
2022-09-06T01:35:37.998Z,8
2022-09-06T01:50:47.237Z,7.5
2022-09-06T02:05:56.386Z,7.8
2022-09-06T02:21:05.970Z,7.9
2022-09-06T02:36:15.263Z,7.7
2022-09-06T02:51:24.730Z,7.4
2022-09-06T03:06:35.392Z,7.1
2022-09-06T03:21:44.365Z,7.1
2022-09-06T03:36:53.869Z,7.4
2022-09-06T03:52:02.542Z,6.5
2022-09-06T04:07:11.723Z,6.4
2022-09-06T04:22:20.787Z,6.4
2022-09-06T04:37:29.910Z,6.5
2022-09-06T04:52:38.857Z,5.9
2022-09-06T05:07:48.683Z,6.1
2022-09-06T05:22:57.707Z,5.3
2022-09-06T05:39:29.978Z,7.7
2022-09-06T05:54:40.433Z,6
2022-09-06T06:09:50.200Z,6.6
2022-09-06T06:24:59.560Z,8.2
2022-09-06T06:40:08.704Z,10.6
2022-09-06T06:55:18.886Z,10.8
2022-09-06T07:10:35.828Z,9.6
2022-09-06T07:25:45.742Z,10.6
2022-09-06T07:40:55.131Z,10.9
2022-09-06T07:56:04.401Z,9.2
2022-09-06T08:11:19.562Z,8.3
2022-09-06T08:26:28.491Z,9.4
2022-09-06T08:41:38.097Z,8.2
2022-09-06T08:56:50.321Z,7.9
2022-09-06T09:11:59.750Z,7.9
2022-09-06T09:27:09.056Z,8.2
2022-09-06T09:42:20.599Z,7.6
2022-09-06T09:57:32.996Z,6.5
2022-09-06T10:12:43.019Z,6.9
2022-09-06T10:28:11.806Z,6.1
2022-09-06T10:43:22.174Z,5.8
2022-09-06T11:14:51.560Z,5.9
2022-09-06T11:30:04.690Z,4.9
2022-09-06T11:45:14.227Z,5.4
2022-09-06T12:00:24.298Z,6.1
2022-09-06T12:15:35.338Z,4.9
2022-09-06T12:30:46.098Z,4.8
2022-09-06T12:45:55.751Z,4.8
2022-09-06T13:01:06.271Z,5.3
2022-09-06T13:16:17.641Z,4.5
2022-09-06T13:31:29.825Z,5.4
2022-09-06T13:46:39.996Z,5.2
2022-09-06T14:01:50.058Z,4.7
2022-09-06T14:17:00.600Z,5.4
2022-09-06T14:32:09.974Z,5
2022-09-06T14:47:19.429Z,5.1
2022-09-06T15:02:30.901Z,4.5
2022-09-06T15:17:40.898Z,5.1
2022-09-06T15:32:50.128Z,4.8
2022-09-06T15:48:02.537Z,4.3
2022-09-06T16:03:11.686Z,4.6
2022-09-06T16:18:20.970Z,5.2
2022-09-06T16:33:29.690Z,4.2
2022-09-06T16:48:38.785Z,4.4
2022-09-06T17:03:48.027Z,4.4
2022-09-06T17:18:56.640Z,4.3
2022-09-06T17:34:05.386Z,4.8
2022-09-06T17:49:14.406Z,4.2
2022-09-06T18:04:23.148Z,4.8
2022-09-06T18:19:35.336Z,4.7
2022-09-06T18:34:44.802Z,5.6
2022-09-06T18:49:53.992Z,5.3
2022-09-06T19:05:03.095Z,5.9
2022-09-06T19:20:12.325Z,5.3
2022-09-06T19:35:22.173Z,6.1
2022-09-06T19:50:31.237Z,6.1
2022-09-06T20:05:40.637Z,5.5
2022-09-06T20:20:50.374Z,5
2022-09-06T20:35:59.840Z,5.2
2022-09-06T20:51:08.971Z,5.1
2022-09-06T21:06:18.100Z,5.5
2022-09-06T21:21:27.505Z,5.6
2022-09-06T21:36:36.638Z,5.5
2022-09-06T21:51:46.592Z,5.4
2022-09-06T22:06:55.441Z,5.6
2022-09-06T22:22:04.023Z,5.8
2022-09-06T22:37:13.304Z,6.4
2022-09-06T22:52:22.461Z,6.1
2022-09-06T23:07:34.308Z,6.7
2022-09-06T23:22:49.492Z,7
2022-09-06T23:37:58.656Z,7.3
2022-09-06T23:53:08.970Z,7.9
